sensor_id;sensor_type;location;lat;lon;timestamp;P1;durP1;ratioP1;P2;durP2;ratioP2
28605;SDS011;46498;49.968;7.754;2024-01-10T00:02:38;12.55;;;4.65;;
28605;SDS011;46498;49.968;7.754;2024-01-10T00:07:38;15.13;;;5.57;;
28605;SDS011;46498;49.968;7.754;2024-01-10T00:12:39;18.60;;;5.68;;
28605;SDS011;46498;49.968;7.754;2024-01-10T00:17:40;17.08;;;5.50;;
28605;SDS011;46498;49.968;7.754;2024-01-10T00:22:41;15.52;;;6.03;;
28605;SDS011;46498;49.968;7.754;2024-01-10T00:27:42;15.18;;;5.37;;
28605;SDS011;46498;49.968;7.754;2024-01-10T00:32:43;12.75;;;4.75;;
28605;SDS011;46498;49.968;7.754;2024-01-10T00:37:44;16.87;;;5.82;;
28605;SDS011;46498;49.968;7.754;2024-01-10T00:42:45;17.20;;;5.43;;
28605;SDS011;46498;49.968;7.754;2024-01-10T00:47:48;16.52;;;5.43;;
28605;SDS011;46498;49.968;7.754;2024-01-10T00:52:49;14.52;;;5.45;;
28605;SDS011;46498;49.968;7.754;2024-01-10T00:57:50;17.73;;;5.32;;
28605;SDS011;46498;49.968;7.754;2024-01-10T01:02:51;18.42;;;5.25;;
28605;SDS011;46498;49.968;7.754;2024-01-10T01:07:52;18.00;;;5.40;;
28605;SDS011;46498;49.968;7.754;2024-01-10T01:12:53;17.75;;;5.62;;
28605;SDS011;46498;49.968;7.754;2024-01-10T01:17:54;13.65;;;5.32;;
28605;SDS011;46498;49.968;7.754;2024-01-10T01:22:55;19.20;;;6.03;;
28605;SDS011;46498;49.968;7.754;2024-01-10T01:27:56;13.70;;;5.68;;
28605;SDS011;46498;49.968;7.754;2024-01-10T01:32:58;20.77;;;6.65;;
28605;SDS011;46498;49.968;7.754;2024-01-10T01:37:59;20.48;;;7.03;;
28605;SDS011;46498;49.968;7.754;2024-01-10T01:43:00;16.90;;;6.28;;
28605;SDS011;46498;49.968;7.754;2024-01-10T01:48:01;15.57;;;5.37;;
28605;SDS011;46498;49.968;7.754;2024-01-10T01:53:02;19.17;;;6.50;;
28605;SDS011;46498;49.968;7.754;2024-01-10T01:58:04;14.65;;;5.80;;
28605;SDS011;46498;49.968;7.754;2024-01-10T02:03:05;17.73;;;6.07;;
28605;SDS011;46498;49.968;7.754;2024-01-10T02:08:08;21.55;;;7.30;;
28605;SDS011;46498;49.968;7.754;2024-01-10T02:13:09;22.23;;;8.10;;
28605;SDS011;46498;49.968;7.754;2024-01-10T02:18:11;19.25;;;6.50;;
28605;SDS011;46498;49.968;7.754;2024-01-10T02:23:15;16.85;;;6.05;;
28605;SDS011;46498;49.968;7.754;2024-01-10T02:28:16;22.80;;;7.32;;
28605;SDS011;46498;49.968;7.754;2024-01-10T02:33:17;21.25;;;7.28;;
28605;SDS011;46498;49.968;7.754;2024-01-10T02:38:18;18.80;;;6.68;;
28605;SDS011;46498;49.968;7.754;2024-01-10T02:43:21;19.40;;;6.18;;
28605;SDS011;46498;49.968;7.754;2024-01-10T02:48:23;20.42;;;6.15;;
28605;SDS011;46498;49.968;7.754;2024-01-10T02:53:24;18.90;;;6.37;;
28605;SDS011;46498;49.968;7.754;2024-01-10T02:58:25;19.17;;;6.37;;
28605;SDS011;46498;49.968;7.754;2024-01-10T03:03:26;23.17;;;7.28;;
28605;SDS011;46498;49.968;7.754;2024-01-10T03:08:26;21.25;;;7.35;;
28605;SDS011;46498;49.968;7.754;2024-01-10T03:13:27;23.20;;;7.50;;
28605;SDS011;46498;49.968;7.754;2024-01-10T03:18:28;20.98;;;7.35;;
28605;SDS011;46498;49.968;7.754;2024-01-10T03:23:29;18.95;;;6.62;;
28605;SDS011;46498;49.968;7.754;2024-01-10T03:28:30;21.30;;;6.90;;
28605;SDS011;46498;49.968;7.754;2024-01-10T03:33:31;20.42;;;7.55;;
28605;SDS011;46498;49.968;7.754;2024-01-10T03:38:33;26.47;;;7.73;;
28605;SDS011;46498;49.968;7.754;2024-01-10T03:43:34;23.73;;;8.18;;
28605;SDS011;46498;49.968;7.754;2024-01-10T03:48:35;21.87;;;7.95;;
28605;SDS011;46498;49.968;7.754;2024-01-10T03:53:36;23.30;;;8.93;;
28605;SDS011;46498;49.968;7.754;2024-01-10T03:58:37;25.50;;;7.40;;
28605;SDS011;46498;49.968;7.754;2024-01-10T04:03:38;21.25;;;7.93;;
28605;SDS011;46498;49.968;7.754;2024-01-10T04:08:42;22.50;;;7.35;;
28605;SDS011;46498;49.968;7.754;2024-01-10T04:13:43;21.58;;;7.05;;
28605;SDS011;46498;49.968;7.754;2024-01-10T04:18:45;27.93;;;7.57;;
28605;SDS011;46498;49.968;7.754;2024-01-10T04:23:46;25.58;;;7.62;;
28605;SDS011;46498;49.968;7.754;2024-01-10T04:28:47;21.00;;;6.85;;
28605;SDS011;46498;49.968;7.754;2024-01-10T04:33:48;27.42;;;7.07;;
28605;SDS011;46498;49.968;7.754;2024-01-10T04:38:50;22.17;;;7.75;;
28605;SDS011;46498;49.968;7.754;2024-01-10T04:43:51;27.02;;;9.20;;
28605;SDS011;46498;49.968;7.754;2024-01-10T04:48:52;25.12;;;7.72;;
28605;SDS011;46498;49.968;7.754;2024-01-10T04:53:53;25.20;;;8.43;;
28605;SDS011;46498;49.968;7.754;2024-01-10T04:58:54;26.27;;;6.97;;
28605;SDS011;46498;49.968;7.754;2024-01-10T05:03:56;19.80;;;7.37;;
28605;SDS011;46498;49.968;7.754;2024-01-10T05:08:57;25.75;;;7.87;;
28605;SDS011;46498;49.968;7.754;2024-01-10T05:13:58;24.35;;;8.00;;
28605;SDS011;46498;49.968;7.754;2024-01-10T05:19:02;25.15;;;8.07;;
28605;SDS011;46498;49.968;7.754;2024-01-10T05:24:06;21.27;;;7.03;;
28605;SDS011;46498;49.968;7.754;2024-01-10T05:29:07;22.55;;;7.18;;
28605;SDS011;46498;49.968;7.754;2024-01-10T05:34:08;25.05;;;8.10;;
28605;SDS011;46498;49.968;7.754;2024-01-10T05:39:09;26.90;;;7.82;;
28605;SDS011;46498;49.968;7.754;2024-01-10T05:44:10;22.42;;;7.25;;
28605;SDS011;46498;49.968;7.754;2024-01-10T05:49:11;27.02;;;7.93;;
28605;SDS011;46498;49.968;7.754;2024-01-10T05:54:13;23.75;;;7.95;;
28605;SDS011;46498;49.968;7.754;2024-01-10T05:59:13;24.73;;;8.32;;
28605;SDS011;46498;49.968;7.754;2024-01-10T06:04:17;29.05;;;8.98;;
28605;SDS011;46498;49.968;7.754;2024-01-10T06:09:18;26.62;;;8.43;;
28605;SDS011;46498;49.968;7.754;2024-01-10T06:14:22;23.55;;;8.27;;
28605;SDS011;46498;49.968;7.754;2024-01-10T06:19:23;23.35;;;8.45;;
28605;SDS011;46498;49.968;7.754;2024-01-10T06:24:24;25.80;;;7.97;;
28605;SDS011;46498;49.968;7.754;2024-01-10T06:29:26;26.23;;;8.10;;
28605;SDS011;46498;49.968;7.754;2024-01-10T06:34:27;29.92;;;8.63;;
28605;SDS011;46498;49.968;7.754;2024-01-10T06:39:28;23.12;;;8.90;;
28605;SDS011;46498;49.968;7.754;2024-01-10T06:44:29;20.02;;;7.43;;
28605;SDS011;46498;49.968;7.754;2024-01-10T06:49:31;26.12;;;7.65;;
28605;SDS011;46498;49.968;7.754;2024-01-10T06:54:32;22.80;;;7.32;;
28605;SDS011;46498;49.968;7.754;2024-01-10T06:59:33;25.27;;;8.43;;
28605;SDS011;46498;49.968;7.754;2024-01-10T07:04:37;29.10;;;9.07;;
28605;SDS011;46498;49.968;7.754;2024-01-10T07:09:38;25.37;;;8.57;;
28605;SDS011;46498;49.968;7.754;2024-01-10T07:14:41;29.60;;;9.63;;
28605;SDS011;46498;49.968;7.754;2024-01-10T07:19:42;24.30;;;8.55;;
28605;SDS011;46498;49.968;7.754;2024-01-10T07:24:43;29.05;;;8.80;;
28605;SDS011;46498;49.968;7.754;2024-01-10T07:29:44;26.23;;;8.57;;
28605;SDS011;46498;49.968;7.754;2024-01-10T07:34:45;27.23;;;8.00;;
28605;SDS011;46498;49.968;7.754;2024-01-10T07:39:47;23.85;;;8.43;;
28605;SDS011;46498;49.968;7.754;2024-01-10T07:44:47;27.40;;;8.43;;
28605;SDS011;46498;49.968;7.754;2024-01-10T07:49:50;26.30;;;8.68;;
28605;SDS011;46498;49.968;7.754;2024-01-10T07:54:51;27.48;;;8.65;;
28605;SDS011;46498;49.968;7.754;2024-01-10T07:59:53;29.08;;;8.43;;
28605;SDS011;46498;49.968;7.754;2024-01-10T08:04:54;30.95;;;9.40;;
28605;SDS011;46498;49.968;7.754;2024-01-10T08:09:55;34.75;;;9.95;;
28605;SDS011;46498;49.968;7.754;2024-01-10T08:14:57;32.90;;;11.25;;
28605;SDS011;46498;49.968;7.754;2024-01-10T08:19:58;32.22;;;12.23;;
28605;SDS011;46498;49.968;7.754;2024-01-10T08:24:59;31.23;;;10.43;;
28605;SDS011;46498;49.968;7.754;2024-01-10T08:30:01;34.90;;;11.63;;
28605;SDS011;46498;49.968;7.754;2024-01-10T08:35:05;34.50;;;11.95;;
28605;SDS011;46498;49.968;7.754;2024-01-10T08:40:10;38.35;;;11.70;;
28605;SDS011;46498;49.968;7.754;2024-01-10T08:45:12;39.78;;;11.60;;
28605;SDS011;46498;49.968;7.754;2024-01-10T08:50:15;29.70;;;10.27;;
28605;SDS011;46498;49.968;7.754;2024-01-10T08:55:16;33.22;;;10.75;;
28605;SDS011;46498;49.968;7.754;2024-01-10T09:00:17;35.80;;;11.52;;
28605;SDS011;46498;49.968;7.754;2024-01-10T09:05:18;37.13;;;12.52;;
28605;SDS011;46498;49.968;7.754;2024-01-10T09:10:20;36.95;;;12.10;;
28605;SDS011;46498;49.968;7.754;2024-01-10T09:15:23;34.28;;;10.77;;
28605;SDS011;46498;49.968;7.754;2024-01-10T09:20:25;28.12;;;9.85;;
28605;SDS011;46498;49.968;7.754;2024-01-10T09:25:26;32.33;;;10.05;;
28605;SDS011;46498;49.968;7.754;2024-01-10T09:30:27;30.12;;;10.82;;
28605;SDS011;46498;49.968;7.754;2024-01-10T09:35:28;33.60;;;11.50;;
28605;SDS011;46498;49.968;7.754;2024-01-10T09:40:30;32.85;;;10.82;;
28605;SDS011;46498;49.968;7.754;2024-01-10T09:45:32;33.85;;;10.65;;
28605;SDS011;46498;49.968;7.754;2024-01-10T09:50:36;34.45;;;9.95;;
28605;SDS011;46498;49.968;7.754;2024-01-10T09:55:37;30.23;;;10.75;;
28605;SDS011;46498;49.968;7.754;2024-01-10T10:00:38;37.38;;;11.05;;
28605;SDS011;46498;49.968;7.754;2024-01-10T10:05:41;29.87;;;11.18;;
28605;SDS011;46498;49.968;7.754;2024-01-10T10:10:42;33.17;;;11.38;;
28605;SDS011;46498;49.968;7.754;2024-01-10T10:15:45;36.72;;;11.73;;
28605;SDS011;46498;49.968;7.754;2024-01-10T10:21:06;38.88;;;12.73;;
28605;SDS011;46498;49.968;7.754;2024-01-10T10:26:13;36.80;;;12.25;;
28605;SDS011;46498;49.968;7.754;2024-01-10T10:31:21;38.60;;;12.68;;
28605;SDS011;46498;49.968;7.754;2024-01-10T10:36:22;33.95;;;12.30;;
28605;SDS011;46498;49.968;7.754;2024-01-10T10:41:23;35.80;;;12.00;;
28605;SDS011;46498;49.968;7.754;2024-01-10T10:46:28;39.00;;;13.20;;
28605;SDS011;46498;49.968;7.754;2024-01-10T10:51:33;39.75;;;12.32;;
28605;SDS011;46498;49.968;7.754;2024-01-10T10:56:34;37.47;;;13.25;;
28605;SDS011;46498;49.968;7.754;2024-01-10T11:01:38;36.05;;;12.40;;
28605;SDS011;46498;49.968;7.754;2024-01-10T11:11:47;37.08;;;12.82;;
28605;SDS011;46498;49.968;7.754;2024-01-10T11:28:30;33.53;;;12.07;;
28605;SDS011;46498;49.968;7.754;2024-01-10T11:33:32;37.13;;;12.95;;
28605;SDS011;46498;49.968;7.754;2024-01-10T11:38:39;38.53;;;12.35;;
28605;SDS011;46498;49.968;7.754;2024-01-10T11:43:44;33.30;;;11.77;;
28605;SDS011;46498;49.968;7.754;2024-01-10T11:48:45;35.58;;;13.20;;
28605;SDS011;46498;49.968;7.754;2024-01-10T11:53:49;32.17;;;12.73;;
28605;SDS011;46498;49.968;7.754;2024-01-10T11:58:55;32.33;;;12.73;;
28605;SDS011;46498;49.968;7.754;2024-01-10T12:04:19;31.67;;;12.45;;
28605;SDS011;46498;49.968;7.754;2024-01-10T12:09:30;32.97;;;12.98;;
28605;SDS011;46498;49.968;7.754;2024-01-10T12:14:33;38.40;;;13.85;;
28605;SDS011;46498;49.968;7.754;2024-01-10T12:19:35;36.25;;;13.77;;
28605;SDS011;46498;49.968;7.754;2024-01-10T12:24:44;31.23;;;12.10;;
28605;SDS011;46498;49.968;7.754;2024-01-10T12:29:49;35.53;;;12.90;;
28605;SDS011;46498;49.968;7.754;2024-01-10T12:34:54;33.35;;;12.77;;
28605;SDS011;46498;49.968;7.754;2024-01-10T12:40:02;38.22;;;13.88;;
28605;SDS011;46498;49.968;7.754;2024-01-10T12:45:25;30.35;;;11.88;;
28605;SDS011;46498;49.968;7.754;2024-01-10T12:50:26;36.67;;;12.13;;
28605;SDS011;46498;49.968;7.754;2024-01-10T12:55:27;34.72;;;12.80;;
28605;SDS011;46498;49.968;7.754;2024-01-10T13:00:28;33.55;;;12.85;;
28605;SDS011;46498;49.968;7.754;2024-01-10T13:05:30;37.72;;;13.73;;
28605;SDS011;46498;49.968;7.754;2024-01-10T13:10:31;28.83;;;11.88;;
28605;SDS011;46498;49.968;7.754;2024-01-10T13:15:32;41.53;;;14.52;;
28605;SDS011;46498;49.968;7.754;2024-01-10T13:20:33;37.45;;;13.93;;
28605;SDS011;46498;49.968;7.754;2024-01-10T13:25:34;34.50;;;13.30;;
28605;SDS011;46498;49.968;7.754;2024-01-10T13:30:36;37.47;;;13.43;;
28605;SDS011;46498;49.968;7.754;2024-01-10T13:35:37;35.00;;;12.90;;
28605;SDS011;46498;49.968;7.754;2024-01-10T13:40:38;35.15;;;12.45;;
28605;SDS011;46498;49.968;7.754;2024-01-10T13:45:39;34.03;;;13.85;;
28605;SDS011;46498;49.968;7.754;2024-01-10T13:50:41;36.08;;;13.98;;
28605;SDS011;46498;49.968;7.754;2024-01-10T13:55:42;36.63;;;13.15;;
28605;SDS011;46498;49.968;7.754;2024-01-10T14:00:43;40.47;;;14.23;;
28605;SDS011;46498;49.968;7.754;2024-01-10T14:05:45;39.90;;;13.90;;
28605;SDS011;46498;49.968;7.754;2024-01-10T14:10:46;35.90;;;13.13;;
28605;SDS011;46498;49.968;7.754;2024-01-10T14:15:48;36.00;;;14.73;;
28605;SDS011;46498;49.968;7.754;2024-01-10T14:20:49;34.55;;;13.07;;
28605;SDS011;46498;49.968;7.754;2024-01-10T14:25:50;35.63;;;14.02;;
28605;SDS011;46498;49.968;7.754;2024-01-10T14:30:54;34.17;;;14.10;;
28605;SDS011;46498;49.968;7.754;2024-01-10T14:36:10;36.95;;;12.98;;
28605;SDS011;46498;49.968;7.754;2024-01-10T14:41:11;30.83;;;12.63;;
28605;SDS011;46498;49.968;7.754;2024-01-10T14:46:12;33.95;;;13.73;;
28605;SDS011;46498;49.968;7.754;2024-01-10T14:51:13;34.15;;;11.55;;
28605;SDS011;46498;49.968;7.754;2024-01-10T14:56:15;35.47;;;13.15;;
28605;SDS011;46498;49.968;7.754;2024-01-10T15:01:16;29.50;;;11.35;;
28605;SDS011;46498;49.968;7.754;2024-01-10T15:06:18;32.87;;;12.33;;
28605;SDS011;46498;49.968;7.754;2024-01-10T15:11:19;37.55;;;12.75;;
28605;SDS011;46498;49.968;7.754;2024-01-10T15:16:21;34.17;;;12.47;;
28605;SDS011;46498;49.968;7.754;2024-01-10T15:21:22;29.70;;;11.85;;
28605;SDS011;46498;49.968;7.754;2024-01-10T15:26:23;35.90;;;12.27;;
28605;SDS011;46498;49.968;7.754;2024-01-10T15:31:24;35.88;;;12.00;;
28605;SDS011;46498;49.968;7.754;2024-01-10T15:36:26;34.10;;;11.17;;
28605;SDS011;46498;49.968;7.754;2024-01-10T15:41:29;35.70;;;12.88;;
28605;SDS011;46498;49.968;7.754;2024-01-10T15:46:31;32.72;;;11.25;;
28605;SDS011;46498;49.968;7.754;2024-01-10T15:51:33;30.60;;;11.60;;
28605;SDS011;46498;49.968;7.754;2024-01-10T15:56:34;36.00;;;12.50;;
28605;SDS011;46498;49.968;7.754;2024-01-10T16:01:39;40.25;;;12.02;;
28605;SDS011;46498;49.968;7.754;2024-01-10T16:06:40;35.60;;;12.10;;
28605;SDS011;46498;49.968;7.754;2024-01-10T16:11:41;31.60;;;11.55;;
28605;SDS011;46498;49.968;7.754;2024-01-10T16:16:43;36.15;;;12.60;;
28605;SDS011;46498;49.968;7.754;2024-01-10T16:21:44;30.25;;;11.68;;
28605;SDS011;46498;49.968;7.754;2024-01-10T16:26:44;35.08;;;11.77;;
28605;SDS011;46498;49.968;7.754;2024-01-10T16:31:45;36.38;;;13.68;;
28605;SDS011;46498;49.968;7.754;2024-01-10T16:36:46;33.35;;;12.23;;
28605;SDS011;46498;49.968;7.754;2024-01-10T16:41:47;35.22;;;12.77;;
28605;SDS011;46498;49.968;7.754;2024-01-10T16:46:48;31.77;;;12.05;;
28605;SDS011;46498;49.968;7.754;2024-01-10T16:51:49;29.27;;;10.68;;
28605;SDS011;46498;49.968;7.754;2024-01-10T16:56:50;34.75;;;12.50;;
28605;SDS011;46498;49.968;7.754;2024-01-10T17:01:51;32.03;;;11.43;;
28605;SDS011;46498;49.968;7.754;2024-01-10T17:06:52;37.65;;;12.20;;
28605;SDS011;46498;49.968;7.754;2024-01-10T17:11:53;36.10;;;13.35;;
28605;SDS011;46498;49.968;7.754;2024-01-10T17:16:54;34.92;;;12.00;;
28605;SDS011;46498;49.968;7.754;2024-01-10T17:21:55;34.75;;;12.57;;
28605;SDS011;46498;49.968;7.754;2024-01-10T17:26:56;38.42;;;13.60;;
28605;SDS011;46498;49.968;7.754;2024-01-10T17:31:57;37.10;;;12.68;;
28605;SDS011;46498;49.968;7.754;2024-01-10T17:36:58;38.80;;;13.57;;
28605;SDS011;46498;49.968;7.754;2024-01-10T17:41:58;33.20;;;12.82;;
28605;SDS011;46498;49.968;7.754;2024-01-10T17:46:59;36.15;;;13.35;;
28605;SDS011;46498;49.968;7.754;2024-01-10T17:52:01;40.75;;;13.57;;
28605;SDS011;46498;49.968;7.754;2024-01-10T17:57:02;42.67;;;14.98;;
28605;SDS011;46498;49.968;7.754;2024-01-10T18:02:03;39.75;;;14.27;;
28605;SDS011;46498;49.968;7.754;2024-01-10T18:07:05;46.00;;;16.37;;
28605;SDS011;46498;49.968;7.754;2024-01-10T18:12:09;42.53;;;15.55;;
28605;SDS011;46498;49.968;7.754;2024-01-10T18:17:10;46.92;;;16.15;;
28605;SDS011;46498;49.968;7.754;2024-01-10T18:22:11;54.88;;;19.35;;
28605;SDS011;46498;49.968;7.754;2024-01-10T18:27:12;54.50;;;22.98;;
28605;SDS011;46498;49.968;7.754;2024-01-10T18:32:13;59.92;;;20.95;;
28605;SDS011;46498;49.968;7.754;2024-01-10T18:37:14;81.53;;;24.85;;
28605;SDS011;46498;49.968;7.754;2024-01-10T18:42:16;82.00;;;27.13;;
28605;SDS011;46498;49.968;7.754;2024-01-10T18:47:17;57.58;;;21.33;;
28605;SDS011;46498;49.968;7.754;2024-01-10T18:52:18;52.03;;;18.58;;
28605;SDS011;46498;49.968;7.754;2024-01-10T18:57:19;40.17;;;14.35;;
28605;SDS011;46498;49.968;7.754;2024-01-10T19:02:20;46.17;;;15.55;;
28605;SDS011;46498;49.968;7.754;2024-01-10T19:07:22;43.40;;;15.57;;
28605;SDS011;46498;49.968;7.754;2024-01-10T19:12:23;40.22;;;15.45;;
28605;SDS011;46498;49.968;7.754;2024-01-10T19:17:24;39.75;;;14.05;;
28605;SDS011;46498;49.968;7.754;2024-01-10T19:22:25;53.47;;;19.52;;
28605;SDS011;46498;49.968;7.754;2024-01-10T19:27:27;52.17;;;19.95;;
28605;SDS011;46498;49.968;7.754;2024-01-10T19:32:28;37.42;;;13.55;;
28605;SDS011;46498;49.968;7.754;2024-01-10T19:37:30;47.25;;;17.35;;
28605;SDS011;46498;49.968;7.754;2024-01-10T19:42:31;52.53;;;19.55;;
28605;SDS011;46498;49.968;7.754;2024-01-10T19:47:32;54.22;;;19.48;;
28605;SDS011;46498;49.968;7.754;2024-01-10T19:52:35;68.65;;;24.67;;
28605;SDS011;46498;49.968;7.754;2024-01-10T19:57:36;50.53;;;20.20;;
28605;SDS011;46498;49.968;7.754;2024-01-10T20:02:38;42.78;;;16.67;;
28605;SDS011;46498;49.968;7.754;2024-01-10T20:07:39;43.05;;;13.75;;
28605;SDS011;46498;49.968;7.754;2024-01-10T20:12:41;44.58;;;16.80;;
28605;SDS011;46498;49.968;7.754;2024-01-10T20:17:42;47.38;;;17.90;;
28605;SDS011;46498;49.968;7.754;2024-01-10T20:22:44;45.00;;;15.82;;
28605;SDS011;46498;49.968;7.754;2024-01-10T20:27:45;40.53;;;14.95;;
28605;SDS011;46498;49.968;7.754;2024-01-10T20:32:46;38.45;;;14.55;;
28605;SDS011;46498;49.968;7.754;2024-01-10T20:37:47;36.67;;;13.98;;
28605;SDS011;46498;49.968;7.754;2024-01-10T20:42:48;39.95;;;13.65;;
28605;SDS011;46498;49.968;7.754;2024-01-10T20:47:49;47.58;;;14.65;;
28605;SDS011;46498;49.968;7.754;2024-01-10T20:52:50;39.03;;;13.13;;
28605;SDS011;46498;49.968;7.754;2024-01-10T20:57:51;42.67;;;14.60;;
28605;SDS011;46498;49.968;7.754;2024-01-10T21:07:55;47.03;;;14.35;;
28605;SDS011;46498;49.968;7.754;2024-01-10T21:12:57;42.40;;;14.75;;
28605;SDS011;46498;49.968;7.754;2024-01-10T21:17:58;41.70;;;13.73;;
28605;SDS011;46498;49.968;7.754;2024-01-10T21:22:59;42.05;;;14.15;;
28605;SDS011;46498;49.968;7.754;2024-01-10T21:28:06;38.25;;;13.35;;
28605;SDS011;46498;49.968;7.754;2024-01-10T21:33:08;35.17;;;13.57;;
28605;SDS011;46498;49.968;7.754;2024-01-10T21:38:09;37.25;;;14.40;;
28605;SDS011;46498;49.968;7.754;2024-01-10T21:43:10;37.47;;;13.10;;
28605;SDS011;46498;49.968;7.754;2024-01-10T21:48:11;34.75;;;12.68;;
28605;SDS011;46498;49.968;7.754;2024-01-10T21:53:12;35.15;;;13.27;;
28605;SDS011;46498;49.968;7.754;2024-01-10T21:58:13;36.42;;;12.82;;
28605;SDS011;46498;49.968;7.754;2024-01-10T22:03:15;34.55;;;12.25;;
28605;SDS011;46498;49.968;7.754;2024-01-10T22:08:32;38.35;;;11.95;;
28605;SDS011;46498;49.968;7.754;2024-01-10T22:13:37;33.03;;;12.07;;
28605;SDS011;46498;49.968;7.754;2024-01-10T22:18:38;39.20;;;13.20;;
28605;SDS011;46498;49.968;7.754;2024-01-10T22:23:39;36.00;;;12.98;;
28605;SDS011;46498;49.968;7.754;2024-01-10T22:28:40;39.15;;;12.50;;
28605;SDS011;46498;49.968;7.754;2024-01-10T22:33:41;34.42;;;11.93;;
28605;SDS011;46498;49.968;7.754;2024-01-10T22:38:42;35.22;;;11.90;;
28605;SDS011;46498;49.968;7.754;2024-01-10T22:43:43;33.42;;;11.50;;
28605;SDS011;46498;49.968;7.754;2024-01-10T22:48:44;30.92;;;11.57;;
28605;SDS011;46498;49.968;7.754;2024-01-10T22:53:45;35.78;;;13.15;;
28605;SDS011;46498;49.968;7.754;2024-01-10T22:58:46;29.42;;;11.45;;
28605;SDS011;46498;49.968;7.754;2024-01-10T23:03:47;34.90;;;11.73;;
28605;SDS011;46498;49.968;7.754;2024-01-10T23:08:48;34.50;;;11.55;;
28605;SDS011;46498;49.968;7.754;2024-01-10T23:13:49;31.98;;;12.25;;
28605;SDS011;46498;49.968;7.754;2024-01-10T23:18:50;38.60;;;12.32;;
28605;SDS011;46498;49.968;7.754;2024-01-10T23:23:51;36.75;;;13.32;;
28605;SDS011;46498;49.968;7.754;2024-01-10T23:28:52;36.05;;;12.90;;
28605;SDS011;46498;49.968;7.754;2024-01-10T23:33:53;37.20;;;12.25;;
28605;SDS011;46498;49.968;7.754;2024-01-10T23:38:54;33.28;;;12.10;;
28605;SDS011;46498;49.968;7.754;2024-01-10T23:43:55;40.33;;;12.55;;
28605;SDS011;46498;49.968;7.754;2024-01-10T23:48:55;33.83;;;12.63;;
28605;SDS011;46498;49.968;7.754;2024-01-10T23:53:57;34.78;;;13.07;;
28605;SDS011;46498;49.968;7.754;2024-01-10T23:58:57;34.50;;;13.13;;
